createdAt,value
2023-01-06T00:01:27.639Z,98132.34
2023-01-06T00:03:59.546Z,98106.38
2023-01-06T00:06:29.412Z,98138.38
2023-01-06T00:08:58.871Z,98133.13
2023-01-06T00:11:27.612Z,98138.31
2023-01-06T00:13:57.804Z,98134.88
2023-01-06T00:16:26.409Z,98142.78
2023-01-06T00:18:56.729Z,98153.28
2023-01-06T00:21:25.249Z,98148.00
2023-01-06T00:23:53.659Z,98151.53
2023-01-06T00:26:22.085Z,98145.38
2023-01-06T00:28:53.513Z,98151.44
2023-01-06T00:31:23.233Z,98150.75
2023-01-06T00:33:51.369Z,98162.88
2023-01-06T00:36:21.629Z,98157.69
2023-01-06T00:38:50.964Z,98072.19
2023-01-06T00:41:36.548Z,98141.41
2023-01-06T00:44:04.913Z,98157.84
2023-01-06T00:46:34.579Z,98142.28
2023-01-06T00:49:06.326Z,98061.97
2023-01-06T00:51:36.281Z,98140.63
2023-01-06T00:54:04.906Z,98147.63
2023-01-06T00:56:33.683Z,98162.34
2023-01-06T00:59:03.534Z,98161.47
2023-01-06T01:01:31.735Z,98150.28
2023-01-06T01:04:01.360Z,98111.31
2023-01-06T01:06:29.753Z,98156.38
2023-01-06T01:08:59.547Z,98095.84
2023-01-06T01:11:45.752Z,98178.06
2023-01-06T01:14:15.121Z,98152.91
2023-01-06T01:16:43.321Z,98106.97
2023-01-06T01:19:13.960Z,98139.00
2023-01-06T01:21:42.301Z,98184.03
2023-01-06T01:24:10.496Z,98188.44
2023-01-06T01:26:38.873Z,98191.97
2023-01-06T01:29:07.147Z,98188.47
2023-01-06T01:31:35.299Z,98194.56
2023-01-06T01:34:03.494Z,98172.03
2023-01-06T01:36:33.109Z,98190.09
2023-01-06T01:39:01.506Z,98184.06
2023-01-06T01:41:30.809Z,98116.69
2023-01-06T01:44:00.416Z,98157.34
2023-01-06T01:46:32.446Z,98191.09
2023-01-06T01:49:03.510Z,98157.31
2023-01-06T01:51:42.393Z,98187.59
2023-01-06T01:54:20.638Z,98191.97
2023-01-06T01:56:54.837Z,98161.72
2023-01-06T01:59:28.244Z,98178.16
2023-01-06T02:01:56.952Z,98198.94
2023-01-06T02:04:27.127Z,98194.66
2023-01-06T02:06:57.255Z,98187.63
2023-01-06T02:09:30.921Z,98190.28
2023-01-06T02:11:59.259Z,98189.38
2023-01-06T02:14:29.390Z,98190.25
2023-01-06T02:17:12.409Z,98162.50
2023-01-06T02:20:22.106Z,98186.78
2023-01-06T02:23:22.739Z,98122.66
2023-01-06T02:26:21.482Z,98171.22
2023-01-06T02:29:29.283Z,98166.03
2023-01-06T02:32:03.562Z,98183.31
2023-01-06T02:34:44.771Z,98136.47
2023-01-06T02:37:26.285Z,98191.09
2023-01-06T02:40:10.821Z,98165.16
2023-01-06T02:42:46.390Z,98195.59
2023-01-06T02:45:23.573Z,98179.16
2023-01-06T02:48:03.023Z,98190.38
2023-01-06T02:50:40.611Z,98191.22
2023-01-06T02:53:19.251Z,98199.03
2023-01-06T02:55:50.231Z,98202.56
2023-01-06T02:58:27.320Z,98199.09
2023-01-06T03:01:01.931Z,98142.78
2023-01-06T03:03:37.260Z,98188.66
2023-01-06T03:06:08.887Z,98192.16
2023-01-06T03:08:38.435Z,98153.16
2023-01-06T03:11:06.758Z,98173.91
2023-01-06T03:13:41.157Z,98160.88
2023-01-06T03:16:10.453Z,98166.94
2023-01-06T03:18:42.065Z,98107.22
2023-01-06T03:21:15.773Z,98076.03
2023-01-06T03:23:44.421Z,98133.03
2023-01-06T03:26:12.800Z,98133.03
2023-01-06T03:28:41.029Z,98132.19
2023-01-06T03:31:16.570Z,98129.63
2023-01-06T03:33:57.884Z,98139.31
2023-01-06T03:36:34.145Z,98147.16
2023-01-06T03:39:10.385Z,98161.00
2023-01-06T03:41:59.718Z,98173.22
2023-01-06T03:44:36.503Z,98169.81
2023-01-06T03:47:13.984Z,98180.28
2023-01-06T03:49:51.286Z,98161.25
2023-01-06T03:52:25.561Z,98164.75
2023-01-06T03:54:58.585Z,98165.56
2023-01-06T03:57:30.491Z,98181.13
2023-01-06T04:00:03.708Z,98181.94
2023-01-06T04:02:32.234Z,98181.09
2023-01-06T04:05:08.718Z,98154.25
2023-01-06T04:07:36.955Z,98171.59
2023-01-06T04:10:05.704Z,98169.03
2023-01-06T04:12:39.886Z,98152.56
2023-01-06T04:15:10.626Z,98167.28
2023-01-06T04:17:39.846Z,98164.69
2023-01-06T04:20:12.184Z,98173.41
2023-01-06T04:22:40.621Z,98165.59
2023-01-06T04:25:09.590Z,98169.06
2023-01-06T04:27:37.775Z,98050.44
2023-01-06T04:30:07.135Z,98093.69
2023-01-06T04:32:35.226Z,98046.97
2023-01-06T04:35:03.453Z,98163.84
2023-01-06T04:37:33.053Z,98138.72
2023-01-06T04:40:01.291Z,98169.06
2023-01-06T04:42:29.527Z,98166.47
2023-01-06T04:44:57.664Z,98068.66
2023-01-06T04:47:25.862Z,98177.75
2023-01-06T04:49:53.997Z,98191.72
2023-01-06T04:52:22.110Z,98197.78
2023-01-06T04:54:51.663Z,98196.06
2023-01-06T04:57:19.789Z,98203.88
2023-01-06T04:59:47.871Z,98085.16
2023-01-06T05:02:16.069Z,98206.47
2023-01-06T05:04:47.920Z,98129.31
2023-01-06T05:07:16.404Z,98218.63
2023-01-06T05:09:44.540Z,98215.19
2023-01-06T05:12:14.102Z,98221.22
2023-01-06T05:14:42.229Z,98235.97
2023-01-06T05:17:10.399Z,98233.38
2023-01-06T05:19:38.593Z,98233.34
2023-01-06T05:22:06.673Z,98232.47
2023-01-06T05:24:34.825Z,98240.31
2023-01-06T05:27:03.015Z,98237.72
2023-01-06T05:29:32.809Z,98248.09
2023-01-06T05:32:00.918Z,98215.13
2023-01-06T05:34:29.039Z,98251.53
2023-01-06T05:36:58.070Z,98258.47
2023-01-06T05:39:26.224Z,98255.88
2023-01-06T05:41:54.334Z,98261.09
2023-01-06T05:44:22.447Z,98261.06
2023-01-06T05:46:52.012Z,98264.53
2023-01-06T05:49:20.112Z,98262.81
2023-01-06T05:51:48.208Z,98259.31
2023-01-06T05:54:16.371Z,98256.72
2023-01-06T05:56:44.499Z,98242.00
2023-01-06T05:59:12.689Z,98260.19
2023-01-06T06:01:40.783Z,98256.72
2023-01-06T06:04:12.740Z,98261.06
2023-01-06T06:06:40.899Z,98251.50
2023-01-06T06:09:09.052Z,98269.69
2023-01-06T06:11:37.183Z,98268.84
2023-01-06T06:14:05.283Z,98254.06
2023-01-06T06:16:33.464Z,98272.28
2023-01-06T06:19:01.596Z,98278.34
2023-01-06T06:21:32.009Z,98279.22
2023-01-06T06:24:01.231Z,98145.66
2023-01-06T06:26:30.145Z,98259.28
2023-01-06T06:28:58.389Z,98214.19
2023-01-06T06:31:28.497Z,98266.22
2023-01-06T06:33:58.795Z,98251.47
2023-01-06T06:36:27.659Z,98150.88
2023-01-06T06:38:57.501Z,98217.63
2023-01-06T06:41:26.838Z,98152.59
2023-01-06T06:43:55.276Z,98280.06
2023-01-06T06:46:23.793Z,98161.22
2023-01-06T06:48:52.310Z,98132.59
2023-01-06T06:51:23.025Z,98275.75
2023-01-06T06:53:51.874Z,98247.16
2023-01-06T06:56:22.544Z,98280.09
2023-01-06T06:58:50.799Z,98275.75
2023-01-06T07:01:21.397Z,98285.25
2023-01-06T07:03:50.151Z,98287.88
2023-01-06T07:06:21.360Z,98284.44
2023-01-06T07:08:50.215Z,98288.78
2023-01-06T07:11:18.774Z,98289.69
2023-01-06T07:13:48.797Z,98303.53
2023-01-06T07:16:17.189Z,98276.66
2023-01-06T07:18:45.309Z,98292.31
2023-01-06T07:21:13.640Z,98288.00
2023-01-06T07:23:41.797Z,98281.06
2023-01-06T07:26:11.903Z,98261.13
2023-01-06T07:28:40.101Z,98268.94
2023-01-06T07:31:09.790Z,98290.59
2023-01-06T07:33:37.961Z,98226.41
2023-01-06T07:36:06.615Z,98271.50
2023-01-06T07:38:34.760Z,98293.16
2023-01-06T07:41:02.900Z,98279.28
2023-01-06T07:43:31.106Z,98292.28
2023-01-06T07:45:59.372Z,98289.66
2023-01-06T07:48:29.286Z,98207.31
2023-01-06T07:50:59.093Z,98292.22
2023-01-06T07:53:27.527Z,98287.84
2023-01-06T07:55:55.984Z,98248.75
2023-01-06T07:58:25.145Z,98281.59
2023-01-06T08:00:53.693Z,98285.81
2023-01-06T08:03:21.972Z,98289.22
2023-01-06T08:05:51.669Z,98263.09
2023-01-06T08:08:19.745Z,98283.78
2023-01-06T08:10:47.978Z,98257.66
2023-01-06T08:13:17.192Z,98271.34
2023-01-06T08:15:48.718Z,98270.34
2023-01-06T08:18:16.918Z,98279.84
2023-01-06T08:20:45.079Z,98271.03
2023-01-06T08:23:14.678Z,98263.88
2023-01-06T08:25:42.813Z,98269.78
2023-01-06T08:28:10.933Z,98272.41
2023-01-06T08:30:40.758Z,98265.34
2023-01-06T08:33:08.882Z,98258.31
2023-01-06T08:35:37.398Z,98258.38
2023-01-06T08:38:05.587Z,98266.16
2023-01-06T08:40:35.153Z,98259.13
2023-01-06T08:43:03.353Z,98250.44
2023-01-06T08:45:31.499Z,98270.38
2023-01-06T08:47:59.687Z,98272.13
2023-01-06T08:50:28.133Z,98278.19
2023-01-06T08:52:56.268Z,98277.22
2023-01-06T08:55:24.445Z,98284.16
2023-01-06T08:57:55.050Z,98290.31
2023-01-06T09:00:23.482Z,98268.59
2023-01-06T09:02:58.155Z,98284.88
2023-01-06T09:05:26.251Z,98284.78
2023-01-06T09:07:54.998Z,98286.47
2023-01-06T09:10:23.887Z,98134.19
2023-01-06T09:12:53.508Z,98282.91
2023-01-06T09:15:21.704Z,98288.03
2023-01-06T09:17:50.192Z,98268.78
2023-01-06T09:20:18.405Z,98291.22
2023-01-06T09:22:46.758Z,98296.41
2023-01-06T09:25:14.943Z,98288.50
2023-01-06T09:27:43.050Z,98258.13
2023-01-06T09:30:14.215Z,98294.47
2023-01-06T09:32:42.312Z,98292.72
2023-01-06T09:35:11.409Z,98254.63
2023-01-06T09:37:39.573Z,98257.84
2023-01-06T09:40:10.066Z,98285.50
2023-01-06T09:42:52.769Z,98277.59
2023-01-06T09:45:33.146Z,98271.22
2023-01-06T09:48:05.263Z,98272.06
2023-01-06T09:50:37.227Z,98267.47
2023-01-06T09:53:08.061Z,98253.56
2023-01-06T09:55:39.937Z,98213.69
2023-01-06T09:58:14.127Z,98230.91
2023-01-06T10:00:46.292Z,98232.50
2023-01-06T10:03:16.371Z,98242.78
2023-01-06T10:05:57.734Z,98224.47
2023-01-06T10:08:35.003Z,98238.94
2023-01-06T10:11:13.186Z,98229.97
2023-01-06T10:13:54.110Z,98228.13
2023-01-06T10:16:34.353Z,98214.91
2023-01-06T10:19:16.520Z,98218.28
2023-01-06T10:21:50.387Z,97896.22
2023-01-06T10:24:45.367Z,98213.47
2023-01-06T10:27:24.305Z,98002.59
2023-01-06T10:29:55.500Z,98184.34
2023-01-06T10:32:32.835Z,98196.94
2023-01-06T10:35:02.070Z,98197.66
2023-01-06T10:37:39.001Z,98178.34
2023-01-06T10:40:19.641Z,98188.97
2023-01-06T10:43:00.454Z,98193.06
2023-01-06T10:45:37.983Z,98173.75
2023-01-06T10:48:12.322Z,98182.19
2023-01-06T10:50:40.801Z,98143.28
2023-01-06T10:53:09.141Z,98157.59
2023-01-06T10:55:41.885Z,98166.00
2023-01-06T10:58:25.668Z,98172.69
2023-01-06T11:00:59.489Z,98164.66
2023-01-06T11:03:34.509Z,98152.41
2023-01-06T11:06:09.811Z,98161.56
2023-01-06T11:08:38.975Z,98163.09
2023-01-06T11:11:26.801Z,98137.88
2023-01-06T11:13:58.530Z,98147.09
2023-01-06T11:16:28.945Z,98123.56
2023-01-06T11:19:00.024Z,98141.97
2023-01-06T11:21:40.135Z,98142.66
2023-01-06T11:24:19.095Z,98134.75
2023-01-06T11:26:53.313Z,98080.56
2023-01-06T11:29:28.178Z,98133.47
2023-01-06T11:31:57.548Z,98110.56
2023-01-06T11:34:30.252Z,98130.53
2023-01-06T11:36:59.326Z,98043.31
2023-01-06T11:39:31.271Z,98109.88
2023-01-06T11:42:06.266Z,98118.59
2023-01-06T11:44:36.746Z,98053.50
2023-01-06T11:47:08.361Z,98111.63
2023-01-06T11:49:42.663Z,98110.69
2023-01-06T11:52:22.933Z,98107.84
2023-01-06T11:54:59.891Z,98088.59
2023-01-06T11:57:41.413Z,98085.56
2023-01-06T12:00:33.517Z,98098.81
2023-01-06T12:03:09.559Z,98088.13
2023-01-06T12:05:46.995Z,98068.28
2023-01-06T12:08:21.093Z,98069.44
2023-01-06T12:10:54.720Z,98075.91
2023-01-06T12:13:23.561Z,98074.81
2023-01-06T12:16:01.214Z,98052.41
2023-01-06T12:18:33.288Z,98064.97
2023-01-06T12:21:05.150Z,98013.75
2023-01-06T12:23:36.077Z,98055.66
2023-01-06T12:26:10.132Z,98057.59
2023-01-06T12:28:41.753Z,98035.47
2023-01-06T12:31:16.168Z,98052.97
2023-01-06T12:33:51.522Z,98049.22
2023-01-06T12:36:29.136Z,98058.72
2023-01-06T12:38:58.684Z,98015.44
2023-01-06T12:41:33.409Z,98038.22
2023-01-06T12:44:11.145Z,98037.06
2023-01-06T12:46:48.027Z,98050.03
2023-01-06T12:49:22.982Z,98035.41
2023-01-06T12:51:56.838Z,98045.06
2023-01-06T12:54:30.332Z,97997.44
2023-01-06T12:57:12.253Z,98021.19
2023-01-06T12:59:50.799Z,98040.03
2023-01-06T13:02:36.928Z,98040.47
2023-01-06T13:05:24.351Z,98025.66
2023-01-06T13:08:08.840Z,98024.59
2023-01-06T13:10:44.200Z,98010.75
2023-01-06T13:13:56.970Z,98001.22
2023-01-06T13:16:32.371Z,97996.50
2023-01-06T13:19:11.732Z,97984.50
2023-01-06T13:21:41.355Z,97983.50
2023-01-06T13:24:30.970Z,97988.56
2023-01-06T13:27:40.739Z,97992.41
2023-01-06T13:30:26.961Z,97988.31
2023-01-06T13:33:23.873Z,97986.38
2023-01-06T13:36:16.236Z,97981.78
2023-01-06T13:38:58.454Z,97984.84
2023-01-06T13:41:33.053Z,97995.88
2023-01-06T13:44:02.965Z,97981.09
2023-01-06T13:46:33.678Z,97954.28
2023-01-06T13:49:05.405Z,97994.66
2023-01-06T13:51:36.293Z,97983.28
2023-01-06T13:54:05.518Z,97989.34
2023-01-06T13:56:37.402Z,97960.13
2023-01-06T13:59:23.934Z,97986.47
2023-01-06T14:01:53.812Z,97998.34
2023-01-06T14:04:55.258Z,97927.34
2023-01-06T14:07:42.691Z,97994.22
2023-01-06T14:10:32.603Z,97974.34
2023-01-06T14:13:04.955Z,97984.88
2023-01-06T14:15:34.981Z,97995.34
2023-01-06T14:18:04.890Z,97940.00
2023-01-06T14:20:36.282Z,97855.34
2023-01-06T14:23:06.894Z,97984.91
2023-01-06T14:25:40.711Z,97969.34
2023-01-06T14:28:28.140Z,97985.81
2023-01-06T14:31:28.760Z,97978.91
2023-01-06T14:33:59.000Z,97989.25
2023-01-06T14:36:30.869Z,97927.56
2023-01-06T14:39:03.489Z,97940.13
2023-01-06T14:41:36.503Z,97996.75
2023-01-06T14:44:12.842Z,97973.13
2023-01-06T14:46:44.584Z,97989.72
2023-01-06T14:49:18.087Z,98010.34
2023-01-06T14:51:47.525Z,97994.84
2023-01-06T14:54:23.216Z,97993.34
2023-01-06T14:56:55.476Z,97879.00
2023-01-06T14:59:25.282Z,97993.69
2023-01-06T15:01:59.965Z,97997.09
2023-01-06T15:04:31.774Z,97993.91
2023-01-06T15:07:07.174Z,97972.03
2023-01-06T15:09:35.344Z,97995.56
2023-01-06T15:12:03.471Z,97993.06
2023-01-06T15:14:35.070Z,97952.66
2023-01-06T15:17:07.481Z,97974.31
2023-01-06T15:19:36.608Z,97979.38
2023-01-06T15:22:09.014Z,97979.78
2023-01-06T15:24:41.773Z,97848.44
2023-01-06T15:27:14.924Z,97917.69
2023-01-06T15:29:53.005Z,97988.44
2023-01-06T15:32:22.591Z,97935.13
2023-01-06T15:34:52.139Z,97985.13
2023-01-06T15:37:22.294Z,97990.38
2023-01-06T15:39:51.341Z,97989.34
2023-01-06T15:42:23.665Z,97971.53
2023-01-06T15:44:58.613Z,97997.75
2023-01-06T15:47:33.499Z,97984.81
2023-01-06T15:50:04.824Z,97968.53
2023-01-06T15:52:36.701Z,97980.66
2023-01-06T15:55:07.455Z,97985.91
2023-01-06T15:57:39.354Z,97998.22
2023-01-06T16:00:20.473Z,97956.84
2023-01-06T16:02:49.750Z,97974.34
2023-01-06T16:05:34.973Z,97999.41
2023-01-06T16:08:03.381Z,97995.94
2023-01-06T16:10:37.559Z,98001.22
2023-01-06T16:13:15.286Z,98015.25
2023-01-06T16:15:49.442Z,98009.19
2023-01-06T16:18:19.518Z,98010.13
2023-01-06T16:20:47.740Z,97964.44
2023-01-06T16:23:26.468Z,97998.19
2023-01-06T16:26:05.190Z,98023.28
2023-01-06T16:28:33.971Z,98008.75
2023-01-06T16:31:09.669Z,98021.91
2023-01-06T16:33:41.287Z,97988.31
2023-01-06T16:36:15.179Z,98026.53
2023-01-06T16:38:45.175Z,98043.88
2023-01-06T16:41:18.916Z,98042.28
2023-01-06T16:43:47.988Z,97943.75
2023-01-06T16:46:21.989Z,98035.34
2023-01-06T16:48:53.278Z,98012.91
2023-01-06T16:51:21.755Z,98038.75
2023-01-06T16:53:50.704Z,98044.91
2023-01-06T16:56:22.814Z,98041.44
2023-01-06T16:58:56.905Z,98032.75
2023-01-06T17:01:28.247Z,98033.59
2023-01-06T17:03:59.107Z,98034.59
2023-01-06T17:06:29.017Z,98028.53
2023-01-06T17:09:01.575Z,98021.63
2023-01-06T17:11:33.373Z,98020.78
2023-01-06T17:14:05.239Z,98045.84
2023-01-06T17:16:40.630Z,98046.72
2023-01-06T17:19:19.512Z,98043.28
2023-01-06T17:21:49.559Z,98041.53
2023-01-06T17:24:21.131Z,98037.22
2023-01-06T17:26:51.587Z,98033.78
2023-01-06T17:29:22.053Z,98037.22
2023-01-06T17:31:56.486Z,98028.56
2023-01-06T17:34:31.534Z,98057.06
2023-01-06T17:37:04.835Z,98044.94
2023-01-06T17:39:39.025Z,98033.81
2023-01-06T17:42:27.158Z,98038.22
2023-01-06T17:44:58.173Z,97988.16
2023-01-06T17:48:01.830Z,97911.28
2023-01-06T17:50:33.039Z,98048.78
2023-01-06T17:53:33.076Z,98027.16
2023-01-06T17:56:03.006Z,98056.69
2023-01-06T17:58:33.103Z,98055.88
2023-01-06T18:01:02.123Z,98057.63
2023-01-06T18:03:34.009Z,98059.38
2023-01-06T18:06:19.334Z,98032.56
2023-01-06T18:08:49.221Z,98036.88
2023-01-06T18:11:35.495Z,98037.72
2023-01-06T18:14:19.256Z,98060.25
2023-01-06T18:16:48.457Z,98067.22
2023-01-06T18:19:30.908Z,98054.19
2023-01-06T18:21:59.338Z,98034.31
2023-01-06T18:24:32.122Z,98060.34
2023-01-06T18:27:01.369Z,98027.56
2023-01-06T18:29:36.442Z,98072.63
2023-01-06T18:32:25.125Z,98070.06
2023-01-06T18:34:56.282Z,98063.94
2023-01-06T18:37:26.446Z,98075.22
2023-01-06T18:39:57.991Z,98078.59
2023-01-06T18:42:28.502Z,98057.94
2023-01-06T18:45:16.586Z,98070.94
2023-01-06T18:47:47.466Z,98045.88
2023-01-06T18:50:29.829Z,98080.59
2023-01-06T18:52:58.840Z,98082.31
2023-01-06T18:55:32.409Z,98062.41
2023-01-06T18:58:03.702Z,97985.44
2023-01-06T19:00:36.413Z,98094.47
2023-01-06T19:03:38.329Z,98100.56
2023-01-06T19:06:38.115Z,98102.31
2023-01-06T19:09:19.115Z,98089.38
2023-01-06T19:11:47.928Z,98098.94
2023-01-06T19:14:20.068Z,98088.56
2023-01-06T19:16:53.689Z,98098.09
2023-01-06T19:19:28.836Z,98062.59
2023-01-06T19:22:11.125Z,98030.53
2023-01-06T19:24:44.540Z,98096.34
2023-01-06T19:27:32.901Z,98089.38
2023-01-06T19:30:42.216Z,98093.75
2023-01-06T19:33:24.637Z,98076.44
2023-01-06T19:35:53.985Z,98100.72
2023-01-06T19:38:32.128Z,98105.94
2023-01-06T19:41:02.406Z,98102.47
2023-01-06T19:43:32.836Z,98084.25
2023-01-06T19:46:04.976Z,98063.50
2023-01-06T19:48:39.182Z,98118.94
2023-01-06T19:51:24.182Z,98045.31
2023-01-06T19:53:56.515Z,98118.94
2023-01-06T19:56:26.404Z,98118.94
2023-01-06T19:58:56.545Z,98090.31
2023-01-06T20:01:25.523Z,98113.75
2023-01-06T20:03:55.490Z,98124.13
2023-01-06T20:06:24.907Z,98090.34
2023-01-06T20:08:54.664Z,98073.03
2023-01-06T20:11:24.929Z,97959.56
2023-01-06T20:13:53.403Z,98095.53
2023-01-06T20:16:21.700Z,98143.19
2023-01-06T20:18:50.715Z,98129.31
2023-01-06T20:21:18.914Z,98114.59
2023-01-06T20:23:47.299Z,98124.13
2023-01-06T20:26:17.164Z,98128.47
2023-01-06T20:28:45.385Z,98120.66
2023-01-06T20:31:13.604Z,98105.94
2023-01-06T20:33:41.723Z,98133.66
2023-01-06T20:36:10.144Z,98125.00
2023-01-06T20:38:38.265Z,98138.88
2023-01-06T20:41:06.911Z,98140.56
2023-01-06T20:43:36.495Z,98123.22
2023-01-06T20:46:05.702Z,98125.84
2023-01-06T20:48:33.922Z,98063.47
2023-01-06T20:51:02.359Z,98133.63
2023-01-06T20:53:30.678Z,98131.06
2023-01-06T20:55:59.043Z,98143.19
2023-01-06T20:58:27.615Z,98112.88
2023-01-06T21:00:57.370Z,98143.19
2023-01-06T21:03:25.582Z,98127.56
2023-01-06T21:05:54.023Z,98140.59
2023-01-06T21:08:22.394Z,98145.78
2023-01-06T21:10:50.600Z,98141.41
2023-01-06T21:13:18.861Z,98156.16
2023-01-06T21:15:47.105Z,98120.59
2023-01-06T21:18:16.771Z,98105.88
2023-01-06T21:20:44.959Z,98139.69
2023-01-06T21:23:13.168Z,98118.03
2023-01-06T21:25:41.399Z,98143.19
2023-01-06T21:28:09.656Z,98131.88
2023-01-06T21:30:37.904Z,98164.78
2023-01-06T21:33:06.233Z,98144.88
2023-01-06T21:35:35.893Z,98156.97
2023-01-06T21:38:05.387Z,98159.56
2023-01-06T21:40:33.567Z,98155.22
2023-01-06T21:43:09.964Z,98160.44
2023-01-06T21:45:38.603Z,98155.25
2023-01-06T21:48:08.092Z,98151.78
2023-01-06T21:50:40.668Z,98145.66
2023-01-06T21:53:10.773Z,98156.91
2023-01-06T21:55:40.555Z,98150.81
2023-01-06T21:58:08.838Z,98129.13
2023-01-06T22:00:37.079Z,98155.16
2023-01-06T22:03:05.824Z,98129.13
2023-01-06T22:05:35.123Z,98151.72
2023-01-06T22:08:06.301Z,98149.13
2023-01-06T22:10:35.111Z,98151.75
2023-01-06T22:13:04.080Z,98154.31
2023-01-06T22:15:32.674Z,98136.16
2023-01-06T22:18:01.897Z,98131.81
2023-01-06T22:20:32.547Z,98150.03
2023-01-06T22:23:02.915Z,97793.16
2023-01-06T22:25:32.614Z,98141.31
2023-01-06T22:28:00.824Z,98120.44
2023-01-06T22:30:30.659Z,98137.81
2023-01-06T22:32:59.103Z,98097.94
2023-01-06T22:35:27.355Z,98155.97
2023-01-06T22:37:55.864Z,98161.16
2023-01-06T22:40:24.240Z,98157.69
2023-01-06T22:42:53.839Z,98132.53
2023-01-06T22:45:22.139Z,98158.53
2023-01-06T22:47:50.661Z,98067.50
2023-01-06T22:50:19.048Z,98141.19
2023-01-06T22:52:47.248Z,98121.22
2023-01-06T22:55:15.452Z,98162.03
2023-01-06T22:57:43.612Z,98164.63
2023-01-06T23:00:16.841Z,98146.41
2023-01-06T23:02:45.626Z,98171.47
2023-01-06T23:05:13.898Z,98128.91
2023-01-06T23:07:43.806Z,98166.06
2023-01-06T23:10:15.074Z,98095.78
2023-01-06T23:12:44.363Z,98053.25
2023-01-06T23:15:14.187Z,98161.75
2023-01-06T23:17:42.389Z,98162.66
2023-01-06T23:20:11.644Z,98131.41
2023-01-06T23:22:39.950Z,98143.50
2023-01-06T23:25:08.867Z,98138.28
2023-01-06T23:27:38.481Z,98165.19
2023-01-06T23:30:07.704Z,98143.50
2023-01-06T23:32:37.387Z,98130.47
2023-01-06T23:35:06.007Z,98159.13
2023-01-06T23:37:34.621Z,98159.13
2023-01-06T23:40:02.860Z,98168.69
2023-01-06T23:42:34.469Z,97942.38
2023-01-06T23:45:06.091Z,98165.19
2023-01-06T23:47:34.344Z,98146.16
2023-01-06T23:50:04.132Z,98143.47
2023-01-06T23:52:32.314Z,98172.03
2023-01-06T23:55:00.475Z,98177.13
2023-01-06T23:57:29.472Z,98174.56
2023-01-06T23:59:57.686Z,98166.75
